Terminal Aerodrome Forecast
Issued by NWS Twin Cities, MN

Home | Current Version | Previous Version | Text Only | Print | Product List | Glossary On
Versions: 1 2 3 4 5 6 7 8 9 10 11 12 13 14 15 16 17 18 19 20 21 22 23 24 25 26 27
000
FTUS43 KMPX 302300
TAFMSP
TAF
KMSP 302339Z 0100/0206 12011KT P6SM SCT060 BKN250
     FM010300 13011KT P6SM VCSH BKN025 OVC050
     FM010800 14011KT 6SM BR BKN008 OVC015
     FM011200 14009KT 5SM -RA BR SCT008 OVC015
     FM011800 15009KT 6SM BR BKN008
     FM012200 15007KT P6SM SCT008 OVC015=

USA.gov is the U.S. government's official web portal to all federal, state and local government web resources and services.